Terminal Aerodrome Forecast
Issued by NWS Topeka, KS

Home | Current Version | Previous Version | Graphics & Text | Print | Product List | Glossary On
Versions: 1 2 3 4 5 6 7 8 9 10 11 12 13 14 15 16 17 18 19 20 21 22 23 24 25
748
FTUS43 KTOP 241139
TAFTOP
TAF
KTOP 241139Z 2412/2512 17013G24KT P6SM BKN150
     FM241900 14010KT P6SM VCTS BKN040CB
     FM250200 36007KT P6SM -SHRA BKN040
     FM250700 33008KT P6SM -SHRA OVC020
     FM250900 33010KT P6SM OVC015=

USA.gov is the U.S. government's official web portal to all federal, state and local government web resources and services.